sensor_id;sensor_type;location;lat;lon;timestamp;P1;durP1;ratioP1;P2;durP2;ratioP2
23539;SDS011;11947;50.810;4.394;2023-06-19T00:00:14;8.13;;;4.20;;
23539;SDS011;11947;50.810;4.394;2023-06-19T00:06:34;7.50;;;4.60;;
23539;SDS011;11947;50.810;4.394;2023-06-19T00:13:09;7.15;;;4.00;;
23539;SDS011;11947;50.810;4.394;2023-06-19T00:16:58;9.07;;;4.63;;
23539;SDS011;11947;50.810;4.394;2023-06-19T00:19:50;11.23;;;4.60;;
23539;SDS011;11947;50.810;4.394;2023-06-19T00:22:59;6.35;;;4.47;;
23539;SDS011;11947;50.810;4.394;2023-06-19T00:25:25;12.88;;;4.45;;
23539;SDS011;11947;50.810;4.394;2023-06-19T00:27:50;6.82;;;4.20;;
23539;SDS011;11947;50.810;4.394;2023-06-19T00:30:16;6.93;;;4.40;;
23539;SDS011;11947;50.810;4.394;2023-06-19T00:32:48;11.63;;;4.50;;
23539;SDS011;11947;50.810;4.394;2023-06-19T00:35:20;7.80;;;4.13;;
23539;SDS011;11947;50.810;4.394;2023-06-19T00:37:50;7.30;;;4.05;;
23539;SDS011;11947;50.810;4.394;2023-06-19T00:40:21;9.27;;;4.03;;
23539;SDS011;11947;50.810;4.394;2023-06-19T00:43:12;6.18;;;3.53;;
23539;SDS011;11947;50.810;4.394;2023-06-19T00:52:10;8.00;;;3.83;;
23539;SDS011;11947;50.810;4.394;2023-06-19T00:54:36;7.18;;;3.90;;
23539;SDS011;11947;50.810;4.394;2023-06-19T00:57:31;8.85;;;4.13;;
23539;SDS011;11947;50.810;4.394;2023-06-19T01:00:05;9.35;;;4.10;;
23539;SDS011;11947;50.810;4.394;2023-06-19T01:06:18;6.45;;;4.05;;
23539;SDS011;11947;50.810;4.394;2023-06-19T01:11:43;10.57;;;5.00;;
23539;SDS011;11947;50.810;4.394;2023-06-19T01:14:18;7.20;;;4.30;;
23539;SDS011;11947;50.810;4.394;2023-06-19T01:16:53;10.65;;;4.78;;
23539;SDS011;11947;50.810;4.394;2023-06-19T01:19:19;10.60;;;4.75;;
23539;SDS011;11947;50.810;4.394;2023-06-19T01:21:46;7.18;;;4.50;;
23539;SDS011;11947;50.810;4.394;2023-06-19T01:24:18;10.80;;;4.68;;
23539;SDS011;11947;50.810;4.394;2023-06-19T01:26:46;6.40;;;4.07;;
23539;SDS011;11947;50.810;4.394;2023-06-19T01:29:40;7.75;;;4.78;;
23539;SDS011;11947;50.810;4.394;2023-06-19T01:32:08;9.52;;;4.78;;
23539;SDS011;11947;50.810;4.394;2023-06-19T01:34:38;7.43;;;4.68;;
23539;SDS011;11947;50.810;4.394;2023-06-19T01:37:07;8.30;;;4.95;;
23539;SDS011;11947;50.810;4.394;2023-06-19T01:39:39;11.57;;;4.78;;
23539;SDS011;11947;50.810;4.394;2023-06-19T01:42:12;7.82;;;4.40;;
23539;SDS011;11947;50.810;4.394;2023-06-19T01:44:40;8.75;;;4.60;;
23539;SDS011;11947;50.810;4.394;2023-06-19T01:47:10;7.63;;;4.88;;
23539;SDS011;11947;50.810;4.394;2023-06-19T01:49:37;9.88;;;5.38;;
23539;SDS011;11947;50.810;4.394;2023-06-19T01:52:21;12.68;;;5.40;;
23539;SDS011;11947;50.810;4.394;2023-06-19T01:54:48;10.15;;;5.10;;
23539;SDS011;11947;50.810;4.394;2023-06-19T01:57:14;11.20;;;5.72;;
23539;SDS011;11947;50.810;4.394;2023-06-19T01:59:39;8.65;;;5.20;;
23539;SDS011;11947;50.810;4.394;2023-06-19T02:02:05;9.02;;;5.20;;
23539;SDS011;11947;50.810;4.394;2023-06-19T02:04:31;6.85;;;5.05;;
23539;SDS011;11947;50.810;4.394;2023-06-19T02:06:57;10.90;;;6.00;;
23539;SDS011;11947;50.810;4.394;2023-06-19T02:09:23;8.02;;;5.15;;
23539;SDS011;11947;50.810;4.394;2023-06-19T02:11:48;9.52;;;4.93;;
23539;SDS011;11947;50.810;4.394;2023-06-19T02:14:14;13.27;;;5.88;;
23539;SDS011;11947;50.810;4.394;2023-06-19T02:16:40;7.88;;;5.03;;
23539;SDS011;11947;50.810;4.394;2023-06-19T02:19:09;9.02;;;5.25;;
23539;SDS011;11947;50.810;4.394;2023-06-19T02:21:35;12.30;;;5.65;;
23539;SDS011;11947;50.810;4.394;2023-06-19T02:24:02;11.85;;;5.80;;
23539;SDS011;11947;50.810;4.394;2023-06-19T02:26:27;10.60;;;5.97;;
23539;SDS011;11947;50.810;4.394;2023-06-19T02:28:54;9.90;;;5.40;;
23539;SDS011;11947;50.810;4.394;2023-06-19T02:31:21;9.40;;;5.90;;
23539;SDS011;11947;50.810;4.394;2023-06-19T02:33:47;10.43;;;5.50;;
23539;SDS011;11947;50.810;4.394;2023-06-19T02:36:13;10.57;;;5.60;;
23539;SDS011;11947;50.810;4.394;2023-06-19T02:38:44;11.10;;;6.55;;
23539;SDS011;11947;50.810;4.394;2023-06-19T02:41:13;11.90;;;6.97;;
23539;SDS011;11947;50.810;4.394;2023-06-19T02:43:42;9.10;;;6.72;;
23539;SDS011;11947;50.810;4.394;2023-06-19T02:46:08;14.88;;;7.18;;
23539;SDS011;11947;50.810;4.394;2023-06-19T02:48:34;12.93;;;7.97;;
23539;SDS011;11947;50.810;4.394;2023-06-19T02:50:59;10.13;;;6.72;;
23539;SDS011;11947;50.810;4.394;2023-06-19T02:53:25;13.57;;;7.20;;
23539;SDS011;11947;50.810;4.394;2023-06-19T02:55:51;13.05;;;8.07;;
23539;SDS011;11947;50.810;4.394;2023-06-19T02:58:16;12.65;;;8.10;;
23539;SDS011;11947;50.810;4.394;2023-06-19T03:00:42;13.27;;;7.55;;
23539;SDS011;11947;50.810;4.394;2023-06-19T03:03:08;12.63;;;7.95;;
23539;SDS011;11947;50.810;4.394;2023-06-19T03:05:33;13.05;;;7.95;;
23539;SDS011;11947;50.810;4.394;2023-06-19T03:07:59;13.93;;;9.07;;
23539;SDS011;11947;50.810;4.394;2023-06-19T03:10:25;15.52;;;9.15;;
23539;SDS011;11947;50.810;4.394;2023-06-19T03:12:50;15.60;;;10.20;;
23539;SDS011;11947;50.810;4.394;2023-06-19T03:15:16;15.10;;;10.15;;
23539;SDS011;11947;50.810;4.394;2023-06-19T03:18:30;20.67;;;11.25;;
23539;SDS011;11947;50.810;4.394;2023-06-19T03:21:38;16.58;;;12.27;;
23539;SDS011;11947;50.810;4.394;2023-06-19T03:24:10;18.10;;;11.98;;
23539;SDS011;11947;50.810;4.394;2023-06-19T03:27:09;15.48;;;11.52;;
23539;SDS011;11947;50.810;4.394;2023-06-19T03:32:34;17.58;;;11.18;;
23539;SDS011;11947;50.810;4.394;2023-06-19T03:35:21;16.33;;;10.77;;
23539;SDS011;11947;50.810;4.394;2023-06-19T03:37:47;17.75;;;11.90;;
23539;SDS011;11947;50.810;4.394;2023-06-19T03:40:13;21.83;;;11.95;;
23539;SDS011;11947;50.810;4.394;2023-06-19T03:42:39;23.50;;;13.23;;
23539;SDS011;11947;50.810;4.394;2023-06-19T03:45:05;24.77;;;14.85;;
23539;SDS011;11947;50.810;4.394;2023-06-19T03:47:31;23.60;;;15.02;;
23539;SDS011;11947;50.810;4.394;2023-06-19T03:49:57;23.45;;;13.63;;
23539;SDS011;11947;50.810;4.394;2023-06-19T03:52:23;26.27;;;15.00;;
23539;SDS011;11947;50.810;4.394;2023-06-19T03:54:49;25.13;;;14.13;;
23539;SDS011;11947;50.810;4.394;2023-06-19T03:57:14;23.77;;;13.93;;
23539;SDS011;11947;50.810;4.394;2023-06-19T03:59:40;25.75;;;13.60;;
23539;SDS011;11947;50.810;4.394;2023-06-19T04:02:06;22.13;;;13.65;;
23539;SDS011;11947;50.810;4.394;2023-06-19T04:04:31;22.60;;;13.80;;
23539;SDS011;11947;50.810;4.394;2023-06-19T04:06:57;22.00;;;13.82;;
23539;SDS011;11947;50.810;4.394;2023-06-19T04:09:24;21.02;;;13.82;;
23539;SDS011;11947;50.810;4.394;2023-06-19T04:11:50;21.83;;;13.43;;
23539;SDS011;11947;50.810;4.394;2023-06-19T04:14:16;22.05;;;13.63;;
23539;SDS011;11947;50.810;4.394;2023-06-19T04:16:42;22.77;;;13.77;;
23539;SDS011;11947;50.810;4.394;2023-06-19T04:19:10;19.70;;;13.57;;
23539;SDS011;11947;50.810;4.394;2023-06-19T04:21:36;23.33;;;14.73;;
23539;SDS011;11947;50.810;4.394;2023-06-19T04:24:01;26.30;;;14.15;;
23539;SDS011;11947;50.810;4.394;2023-06-19T04:26:29;22.33;;;13.77;;
23539;SDS011;11947;50.810;4.394;2023-06-19T04:28:55;26.00;;;14.52;;
23539;SDS011;11947;50.810;4.394;2023-06-19T04:31:21;21.95;;;13.63;;
23539;SDS011;11947;50.810;4.394;2023-06-19T04:33:47;25.52;;;15.15;;
23539;SDS011;11947;50.810;4.394;2023-06-19T04:36:12;25.48;;;15.38;;
23539;SDS011;11947;50.810;4.394;2023-06-19T04:38:39;24.65;;;15.15;;
23539;SDS011;11947;50.810;4.394;2023-06-19T04:41:04;26.15;;;15.02;;
23539;SDS011;11947;50.810;4.394;2023-06-19T04:43:30;23.95;;;14.38;;
23539;SDS011;11947;50.810;4.394;2023-06-19T04:45:56;25.30;;;15.02;;
23539;SDS011;11947;50.810;4.394;2023-06-19T04:48:21;26.52;;;15.82;;
23539;SDS011;11947;50.810;4.394;2023-06-19T04:50:50;25.45;;;15.13;;
23539;SDS011;11947;50.810;4.394;2023-06-19T04:53:16;22.67;;;15.18;;
23539;SDS011;11947;50.810;4.394;2023-06-19T04:55:42;25.13;;;14.60;;
23539;SDS011;11947;50.810;4.394;2023-06-19T04:58:08;23.10;;;14.73;;
23539;SDS011;11947;50.810;4.394;2023-06-19T05:00:34;21.77;;;13.50;;
23539;SDS011;11947;50.810;4.394;2023-06-19T05:03:00;24.42;;;13.93;;
23539;SDS011;11947;50.810;4.394;2023-06-19T05:05:27;24.55;;;13.80;;
23539;SDS011;11947;50.810;4.394;2023-06-19T05:07:53;19.77;;;12.63;;
23539;SDS011;11947;50.810;4.394;2023-06-19T05:10:19;20.77;;;14.10;;
23539;SDS011;11947;50.810;4.394;2023-06-19T05:12:44;23.35;;;12.85;;
23539;SDS011;11947;50.810;4.394;2023-06-19T05:15:10;18.95;;;12.85;;
23539;SDS011;11947;50.810;4.394;2023-06-19T05:17:36;24.08;;;12.68;;
23539;SDS011;11947;50.810;4.394;2023-06-19T05:20:04;23.52;;;12.27;;
23539;SDS011;11947;50.810;4.394;2023-06-19T05:22:32;25.85;;;13.50;;
23539;SDS011;11947;50.810;4.394;2023-06-19T05:24:59;22.90;;;13.18;;
23539;SDS011;11947;50.810;4.394;2023-06-19T05:27:25;19.40;;;12.07;;
23539;SDS011;11947;50.810;4.394;2023-06-19T05:29:50;27.17;;;14.05;;
23539;SDS011;11947;50.810;4.394;2023-06-19T05:32:16;26.58;;;14.10;;
23539;SDS011;11947;50.810;4.394;2023-06-19T05:34:42;24.80;;;14.05;;
23539;SDS011;11947;50.810;4.394;2023-06-19T05:37:07;26.75;;;15.25;;
23539;SDS011;11947;50.810;4.394;2023-06-19T05:39:33;21.80;;;13.73;;
23539;SDS011;11947;50.810;4.394;2023-06-19T05:41:59;25.98;;;13.80;;
23539;SDS011;11947;50.810;4.394;2023-06-19T05:44:24;23.63;;;13.23;;
23539;SDS011;11947;50.810;4.394;2023-06-19T05:46:50;18.15;;;12.85;;
23539;SDS011;11947;50.810;4.394;2023-06-19T05:49:16;22.08;;;12.73;;
23539;SDS011;11947;50.810;4.394;2023-06-19T05:51:41;22.15;;;13.60;;
23539;SDS011;11947;50.810;4.394;2023-06-19T05:54:08;23.20;;;13.02;;
23539;SDS011;11947;50.810;4.394;2023-06-19T05:56:34;19.30;;;13.00;;
23539;SDS011;11947;50.810;4.394;2023-06-19T05:59:01;23.92;;;13.52;;
23539;SDS011;11947;50.810;4.394;2023-06-19T06:01:27;23.05;;;13.80;;
23539;SDS011;11947;50.810;4.394;2023-06-19T06:03:56;23.08;;;14.48;;
23539;SDS011;11947;50.810;4.394;2023-06-19T06:06:22;27.42;;;15.35;;
23539;SDS011;11947;50.810;4.394;2023-06-19T06:08:49;26.27;;;14.95;;
23539;SDS011;11947;50.810;4.394;2023-06-19T06:11:16;22.77;;;14.90;;
23539;SDS011;11947;50.810;4.394;2023-06-19T06:13:42;23.50;;;14.40;;
23539;SDS011;11947;50.810;4.394;2023-06-19T06:16:07;23.60;;;14.02;;
23539;SDS011;11947;50.810;4.394;2023-06-19T06:18:33;24.50;;;14.75;;
23539;SDS011;11947;50.810;4.394;2023-06-19T06:20:59;22.73;;;14.35;;
23539;SDS011;11947;50.810;4.394;2023-06-19T06:23:25;23.45;;;14.73;;
23539;SDS011;11947;50.810;4.394;2023-06-19T06:25:50;27.55;;;16.63;;
23539;SDS011;11947;50.810;4.394;2023-06-19T06:28:16;23.52;;;14.98;;
23539;SDS011;11947;50.810;4.394;2023-06-19T06:30:42;25.42;;;16.95;;
23539;SDS011;11947;50.810;4.394;2023-06-19T06:33:08;25.90;;;17.15;;
23539;SDS011;11947;50.810;4.394;2023-06-19T06:35:34;27.10;;;18.05;;
23539;SDS011;11947;50.810;4.394;2023-06-19T06:38:00;27.05;;;17.58;;
23539;SDS011;11947;50.810;4.394;2023-06-19T06:40:27;25.92;;;17.23;;
23539;SDS011;11947;50.810;4.394;2023-06-19T06:42:54;24.42;;;16.15;;
23539;SDS011;11947;50.810;4.394;2023-06-19T06:45:20;23.38;;;15.77;;
23539;SDS011;11947;50.810;4.394;2023-06-19T06:47:45;24.92;;;15.93;;
23539;SDS011;11947;50.810;4.394;2023-06-19T06:50:11;25.92;;;15.40;;
23539;SDS011;11947;50.810;4.394;2023-06-19T06:52:37;24.17;;;15.30;;
23539;SDS011;11947;50.810;4.394;2023-06-19T06:55:03;22.65;;;14.63;;
23539;SDS011;11947;50.810;4.394;2023-06-19T06:57:29;24.48;;;14.38;;
23539;SDS011;11947;50.810;4.394;2023-06-19T06:59:55;20.48;;;13.93;;
23539;SDS011;11947;50.810;4.394;2023-06-19T07:02:21;25.17;;;13.45;;
23539;SDS011;11947;50.810;4.394;2023-06-19T07:04:46;23.20;;;13.77;;
23539;SDS011;11947;50.810;4.394;2023-06-19T07:07:12;20.90;;;12.98;;
23539;SDS011;11947;50.810;4.394;2023-06-19T07:09:37;25.17;;;12.98;;
23539;SDS011;11947;50.810;4.394;2023-06-19T07:12:03;21.30;;;13.95;;
23539;SDS011;11947;50.810;4.394;2023-06-19T07:14:30;19.20;;;12.70;;
23539;SDS011;11947;50.810;4.394;2023-06-19T07:16:55;19.10;;;12.23;;
23539;SDS011;11947;50.810;4.394;2023-06-19T07:19:21;18.00;;;12.43;;
23539;SDS011;11947;50.810;4.394;2023-06-19T07:21:47;19.20;;;12.32;;
23539;SDS011;11947;50.810;4.394;2023-06-19T07:24:15;17.45;;;11.43;;
23539;SDS011;11947;50.810;4.394;2023-06-19T07:26:40;19.20;;;11.85;;
23539;SDS011;11947;50.810;4.394;2023-06-19T07:29:06;17.17;;;11.55;;
23539;SDS011;11947;50.810;4.394;2023-06-19T07:31:32;20.17;;;12.50;;
23539;SDS011;11947;50.810;4.394;2023-06-19T07:33:57;22.70;;;12.15;;
23539;SDS011;11947;50.810;4.394;2023-06-19T07:36:23;19.23;;;12.05;;
23539;SDS011;11947;50.810;4.394;2023-06-19T07:39:14;17.70;;;10.93;;
23539;SDS011;11947;50.810;4.394;2023-06-19T07:41:40;18.75;;;10.65;;
23539;SDS011;11947;50.810;4.394;2023-06-19T07:44:05;16.48;;;11.48;;
23539;SDS011;11947;50.810;4.394;2023-06-19T07:46:31;17.98;;;11.68;;
23539;SDS011;11947;50.810;4.394;2023-06-19T07:48:57;19.42;;;11.27;;
23539;SDS011;11947;50.810;4.394;2023-06-19T07:51:22;22.40;;;11.32;;
23539;SDS011;11947;50.810;4.394;2023-06-19T07:53:48;19.30;;;12.27;;
23539;SDS011;11947;50.810;4.394;2023-06-19T07:56:13;20.85;;;12.07;;
23539;SDS011;11947;50.810;4.394;2023-06-19T07:58:39;18.83;;;11.90;;
23539;SDS011;11947;50.810;4.394;2023-06-19T08:01:05;17.48;;;11.10;;
23539;SDS011;11947;50.810;4.394;2023-06-19T08:03:30;23.02;;;11.90;;
23539;SDS011;11947;50.810;4.394;2023-06-19T08:05:56;18.85;;;11.77;;
23539;SDS011;11947;50.810;4.394;2023-06-19T08:08:22;20.42;;;11.52;;
23539;SDS011;11947;50.810;4.394;2023-06-19T08:10:47;18.42;;;11.77;;
23539;SDS011;11947;50.810;4.394;2023-06-19T08:13:13;18.55;;;11.63;;
23539;SDS011;11947;50.810;4.394;2023-06-19T08:15:39;20.45;;;11.68;;
23539;SDS011;11947;50.810;4.394;2023-06-19T08:18:04;19.90;;;12.02;;
23539;SDS011;11947;50.810;4.394;2023-06-19T08:20:30;17.58;;;11.32;;
23539;SDS011;11947;50.810;4.394;2023-06-19T08:22:55;19.50;;;11.40;;
23539;SDS011;11947;50.810;4.394;2023-06-19T08:25:21;19.45;;;11.52;;
23539;SDS011;11947;50.810;4.394;2023-06-19T08:27:47;16.40;;;11.10;;
23539;SDS011;11947;50.810;4.394;2023-06-19T08:30:13;17.55;;;10.65;;
23539;SDS011;11947;50.810;4.394;2023-06-19T08:32:38;16.75;;;10.85;;
23539;SDS011;11947;50.810;4.394;2023-06-19T08:35:04;17.55;;;10.55;;
23539;SDS011;11947;50.810;4.394;2023-06-19T08:37:30;17.23;;;11.25;;
23539;SDS011;11947;50.810;4.394;2023-06-19T08:39:55;18.00;;;10.95;;
23539;SDS011;11947;50.810;4.394;2023-06-19T08:42:22;19.70;;;11.13;;
23539;SDS011;11947;50.810;4.394;2023-06-19T08:44:50;18.08;;;9.77;;
23539;SDS011;11947;50.810;4.394;2023-06-19T08:47:16;16.35;;;10.07;;
23539;SDS011;11947;50.810;4.394;2023-06-19T08:49:42;17.88;;;10.07;;
23539;SDS011;11947;50.810;4.394;2023-06-19T08:52:08;16.15;;;10.30;;
23539;SDS011;11947;50.810;4.394;2023-06-19T08:54:34;14.35;;;9.45;;
23539;SDS011;11947;50.810;4.394;2023-06-19T08:57:08;17.30;;;10.20;;
23539;SDS011;11947;50.810;4.394;2023-06-19T08:59:34;14.90;;;9.43;;
23539;SDS011;11947;50.810;4.394;2023-06-19T09:02:00;15.00;;;10.68;;
23539;SDS011;11947;50.810;4.394;2023-06-19T09:04:26;17.27;;;10.13;;
23539;SDS011;11947;50.810;4.394;2023-06-19T09:06:53;16.33;;;10.55;;
23539;SDS011;11947;50.810;4.394;2023-06-19T09:09:28;16.60;;;10.75;;
23539;SDS011;11947;50.810;4.394;2023-06-19T09:14:24;17.40;;;10.93;;
23539;SDS011;11947;50.810;4.394;2023-06-19T09:16:56;14.18;;;10.50;;
23539;SDS011;11947;50.810;4.394;2023-06-19T09:19:22;15.07;;;10.55;;
23539;SDS011;11947;50.810;4.394;2023-06-19T09:21:48;15.35;;;10.82;;
23539;SDS011;11947;50.810;4.394;2023-06-19T09:24:13;14.30;;;9.98;;
23539;SDS011;11947;50.810;4.394;2023-06-19T09:26:39;16.85;;;11.02;;
23539;SDS011;11947;50.810;4.394;2023-06-19T09:29:14;16.55;;;10.25;;
23539;SDS011;11947;50.810;4.394;2023-06-19T09:31:44;16.73;;;10.18;;
23539;SDS011;11947;50.810;4.394;2023-06-19T09:34:09;18.40;;;10.43;;
23539;SDS011;11947;50.810;4.394;2023-06-19T09:36:35;15.15;;;9.55;;
23539;SDS011;11947;50.810;4.394;2023-06-19T09:39:04;19.20;;;10.88;;
23539;SDS011;11947;50.810;4.394;2023-06-19T09:41:30;15.15;;;10.90;;
23539;SDS011;11947;50.810;4.394;2023-06-19T09:43:57;18.33;;;11.60;;
23539;SDS011;11947;50.810;4.394;2023-06-19T09:46:32;13.45;;;10.10;;
23539;SDS011;11947;50.810;4.394;2023-06-19T09:49:01;14.07;;;10.52;;
23539;SDS011;11947;50.810;4.394;2023-06-19T09:51:37;15.68;;;11.02;;
23539;SDS011;11947;50.810;4.394;2023-06-19T09:54:06;14.68;;;9.95;;
23539;SDS011;11947;50.810;4.394;2023-06-19T09:56:32;16.17;;;9.45;;
23539;SDS011;11947;50.810;4.394;2023-06-19T09:58:59;16.27;;;10.27;;
23539;SDS011;11947;50.810;4.394;2023-06-19T10:01:25;14.95;;;10.00;;
23539;SDS011;11947;50.810;4.394;2023-06-19T10:04:06;15.48;;;9.88;;
23539;SDS011;11947;50.810;4.394;2023-06-19T10:06:33;15.10;;;9.93;;
23539;SDS011;11947;50.810;4.394;2023-06-19T10:09:10;16.40;;;10.73;;
23539;SDS011;11947;50.810;4.394;2023-06-19T10:11:49;17.10;;;10.85;;
23539;SDS011;11947;50.810;4.394;2023-06-19T10:14:20;17.02;;;11.13;;
23539;SDS011;11947;50.810;4.394;2023-06-19T10:16:47;14.20;;;10.02;;
23539;SDS011;11947;50.810;4.394;2023-06-19T10:19:13;15.50;;;10.82;;
23539;SDS011;11947;50.810;4.394;2023-06-19T10:21:44;13.73;;;9.18;;
23539;SDS011;11947;50.810;4.394;2023-06-19T10:24:13;16.88;;;10.65;;
23539;SDS011;11947;50.810;4.394;2023-06-19T10:26:54;14.82;;;9.63;;
23539;SDS011;11947;50.810;4.394;2023-06-19T10:29:24;14.32;;;9.32;;
23539;SDS011;11947;50.810;4.394;2023-06-19T10:31:52;15.75;;;9.57;;
23539;SDS011;11947;50.810;4.394;2023-06-19T10:34:17;14.52;;;8.35;;
23539;SDS011;11947;50.810;4.394;2023-06-19T10:36:43;13.75;;;8.90;;
23539;SDS011;11947;50.810;4.394;2023-06-19T10:39:09;12.80;;;8.80;;
23539;SDS011;11947;50.810;4.394;2023-06-19T10:41:35;12.25;;;8.70;;
23539;SDS011;11947;50.810;4.394;2023-06-19T10:44:05;14.18;;;9.70;;
23539;SDS011;11947;50.810;4.394;2023-06-19T10:46:35;14.45;;;9.73;;
23539;SDS011;11947;50.810;4.394;2023-06-19T10:49:02;15.35;;;10.00;;
23539;SDS011;11947;50.810;4.394;2023-06-19T10:51:39;13.35;;;10.10;;
23539;SDS011;11947;50.810;4.394;2023-06-19T10:54:06;15.32;;;9.70;;
23539;SDS011;11947;50.810;4.394;2023-06-19T10:56:32;16.70;;;10.32;;
23539;SDS011;11947;50.810;4.394;2023-06-19T10:59:03;14.63;;;10.45;;
23539;SDS011;11947;50.810;4.394;2023-06-19T11:01:42;14.80;;;10.07;;
23539;SDS011;11947;50.810;4.394;2023-06-19T11:04:10;15.05;;;10.32;;
23539;SDS011;11947;50.810;4.394;2023-06-19T11:06:37;13.27;;;10.15;;
23539;SDS011;11947;50.810;4.394;2023-06-19T11:09:04;15.48;;;9.82;;
23539;SDS011;11947;50.810;4.394;2023-06-19T11:11:38;12.32;;;9.88;;
23539;SDS011;11947;50.810;4.394;2023-06-19T11:14:11;14.20;;;10.18;;
23539;SDS011;11947;50.810;4.394;2023-06-19T11:16:38;13.45;;;9.48;;
23539;SDS011;11947;50.810;4.394;2023-06-19T11:19:09;13.93;;;9.38;;
23539;SDS011;11947;50.810;4.394;2023-06-19T11:21:39;11.82;;;9.40;;
23539;SDS011;11947;50.810;4.394;2023-06-19T11:24:06;11.32;;;8.88;;
23539;SDS011;11947;50.810;4.394;2023-06-19T11:26:42;11.00;;;8.93;;
23539;SDS011;11947;50.810;4.394;2023-06-19T11:31:47;11.65;;;9.13;;
23539;SDS011;11947;50.810;4.394;2023-06-19T11:34:14;11.45;;;8.70;;
23539;SDS011;11947;50.810;4.394;2023-06-19T11:36:40;10.90;;;8.88;;
23539;SDS011;11947;50.810;4.394;2023-06-19T11:39:13;9.77;;;8.60;;
23539;SDS011;11947;50.810;4.394;2023-06-19T11:41:40;11.05;;;7.43;;
23539;SDS011;11947;50.810;4.394;2023-06-19T11:44:09;9.40;;;8.38;;
23539;SDS011;11947;50.810;4.394;2023-06-19T11:46:35;12.38;;;8.77;;
23539;SDS011;11947;50.810;4.394;2023-06-19T11:49:08;12.85;;;8.05;;
23539;SDS011;11947;50.810;4.394;2023-06-19T11:51:34;11.73;;;8.25;;
23539;SDS011;11947;50.810;4.394;2023-06-19T11:54:00;14.68;;;8.07;;
23539;SDS011;11947;50.810;4.394;2023-06-19T11:56:28;8.93;;;7.75;;
23539;SDS011;11947;50.810;4.394;2023-06-19T11:58:54;10.32;;;8.30;;
23539;SDS011;11947;50.810;4.394;2023-06-19T12:01:20;12.45;;;8.00;;
23539;SDS011;11947;50.810;4.394;2023-06-19T12:03:45;8.95;;;8.05;;
23539;SDS011;11947;50.810;4.394;2023-06-19T12:06:11;9.60;;;8.15;;
23539;SDS011;11947;50.810;4.394;2023-06-19T12:08:37;8.95;;;8.05;;
23539;SDS011;11947;50.810;4.394;2023-06-19T12:11:03;9.68;;;8.13;;
23539;SDS011;11947;50.810;4.394;2023-06-19T12:13:33;9.00;;;8.10;;
23539;SDS011;11947;50.810;4.394;2023-06-19T12:15:58;10.25;;;7.72;;
23539;SDS011;11947;50.810;4.394;2023-06-19T12:18:24;10.32;;;7.53;;
23539;SDS011;11947;50.810;4.394;2023-06-19T12:20:49;9.27;;;7.93;;
23539;SDS011;11947;50.810;4.394;2023-06-19T12:23:15;9.90;;;8.60;;
23539;SDS011;11947;50.810;4.394;2023-06-19T12:25:41;8.68;;;7.78;;
23539;SDS011;11947;50.810;4.394;2023-06-19T12:28:06;10.05;;;7.03;;
23539;SDS011;11947;50.810;4.394;2023-06-19T12:30:33;8.43;;;7.55;;
23539;SDS011;11947;50.810;4.394;2023-06-19T12:32:59;7.80;;;7.10;;
23539;SDS011;11947;50.810;4.394;2023-06-19T12:35:25;10.75;;;8.40;;
23539;SDS011;11947;50.810;4.394;2023-06-19T12:37:51;10.85;;;8.48;;
23539;SDS011;11947;50.810;4.394;2023-06-19T12:40:17;10.13;;;7.40;;
23539;SDS011;11947;50.810;4.394;2023-06-19T12:42:43;8.68;;;7.38;;
23539;SDS011;11947;50.810;4.394;2023-06-19T12:45:09;8.18;;;7.22;;
23539;SDS011;11947;50.810;4.394;2023-06-19T12:47:35;9.77;;;7.30;;
23539;SDS011;11947;50.810;4.394;2023-06-19T12:50:01;8.75;;;6.68;;
23539;SDS011;11947;50.810;4.394;2023-06-19T12:52:26;8.70;;;7.00;;
23539;SDS011;11947;50.810;4.394;2023-06-19T12:54:52;8.52;;;7.60;;
23539;SDS011;11947;50.810;4.394;2023-06-19T12:57:18;9.15;;;8.25;;
23539;SDS011;11947;50.810;4.394;2023-06-19T12:59:43;11.05;;;7.93;;
23539;SDS011;11947;50.810;4.394;2023-06-19T13:02:09;9.15;;;8.23;;
23539;SDS011;11947;50.810;4.394;2023-06-19T13:04:35;12.45;;;8.27;;
23539;SDS011;11947;50.810;4.394;2023-06-19T13:07:00;8.65;;;7.85;;
23539;SDS011;11947;50.810;4.394;2023-06-19T13:09:26;8.38;;;6.93;;
23539;SDS011;11947;50.810;4.394;2023-06-19T13:11:52;7.70;;;6.90;;
23539;SDS011;11947;50.810;4.394;2023-06-19T13:14:17;7.55;;;6.75;;
23539;SDS011;11947;50.810;4.394;2023-06-19T13:16:43;14.82;;;7.75;;
23539;SDS011;11947;50.810;4.394;2023-06-19T13:19:08;10.88;;;7.35;;
23539;SDS011;11947;50.810;4.394;2023-06-19T13:21:34;9.20;;;7.03;;
23539;SDS011;11947;50.810;4.394;2023-06-19T13:24:00;9.02;;;6.60;;
23539;SDS011;11947;50.810;4.394;2023-06-19T13:26:26;7.20;;;6.50;;
23539;SDS011;11947;50.810;4.394;2023-06-19T13:28:52;7.25;;;6.40;;
23539;SDS011;11947;50.810;4.394;2023-06-19T13:31:17;6.38;;;5.75;;
23539;SDS011;11947;50.810;4.394;2023-06-19T13:33:43;7.57;;;6.45;;
23539;SDS011;11947;50.810;4.394;2023-06-19T13:36:09;6.65;;;5.97;;
23539;SDS011;11947;50.810;4.394;2023-06-19T13:38:34;7.50;;;6.10;;
23539;SDS011;11947;50.810;4.394;2023-06-19T13:41:00;7.75;;;6.60;;
23539;SDS011;11947;50.810;4.394;2023-06-19T13:43:25;9.40;;;6.70;;
23539;SDS011;11947;50.810;4.394;2023-06-19T13:45:51;7.63;;;6.80;;
23539;SDS011;11947;50.810;4.394;2023-06-19T13:48:17;8.32;;;7.15;;
23539;SDS011;11947;50.810;4.394;2023-06-19T13:50:43;7.70;;;6.95;;
23539;SDS011;11947;50.810;4.394;2023-06-19T13:53:08;8.93;;;6.88;;
23539;SDS011;11947;50.810;4.394;2023-06-19T13:55:34;8.18;;;6.70;;
23539;SDS011;11947;50.810;4.394;2023-06-19T13:58:00;9.05;;;6.20;;
23539;SDS011;11947;50.810;4.394;2023-06-19T14:00:26;6.32;;;5.63;;
23539;SDS011;11947;50.810;4.394;2023-06-19T14:02:52;9.30;;;6.45;;
23539;SDS011;11947;50.810;4.394;2023-06-19T14:05:18;8.63;;;7.28;;
23539;SDS011;11947;50.810;4.394;2023-06-19T14:07:44;7.80;;;6.20;;
23539;SDS011;11947;50.810;4.394;2023-06-19T14:10:09;7.00;;;6.30;;
23539;SDS011;11947;50.810;4.394;2023-06-19T14:12:35;7.50;;;5.90;;
23539;SDS011;11947;50.810;4.394;2023-06-19T14:15:01;7.88;;;6.07;;
23539;SDS011;11947;50.810;4.394;2023-06-19T14:17:27;7.28;;;6.35;;
23539;SDS011;11947;50.810;4.394;2023-06-19T14:19:52;9.30;;;6.10;;
23539;SDS011;11947;50.810;4.394;2023-06-19T14:22:20;9.10;;;5.85;;
23539;SDS011;11947;50.810;4.394;2023-06-19T14:24:46;7.88;;;6.00;;
23539;SDS011;11947;50.810;4.394;2023-06-19T14:27:12;8.65;;;5.72;;
23539;SDS011;11947;50.810;4.394;2023-06-19T14:29:37;9.48;;;5.90;;
23539;SDS011;11947;50.810;4.394;2023-06-19T14:32:03;7.65;;;5.53;;
23539;SDS011;11947;50.810;4.394;2023-06-19T14:34:29;7.85;;;5.57;;
23539;SDS011;11947;50.810;4.394;2023-06-19T14:36:54;8.45;;;6.20;;
23539;SDS011;11947;50.810;4.394;2023-06-19T14:39:20;8.23;;;5.88;;
23539;SDS011;11947;50.810;4.394;2023-06-19T14:41:46;9.90;;;5.93;;
23539;SDS011;11947;50.810;4.394;2023-06-19T14:44:16;8.68;;;5.43;;
23539;SDS011;11947;50.810;4.394;2023-06-19T14:47:02;8.20;;;5.43;;
23539;SDS011;11947;50.810;4.394;2023-06-19T14:49:28;9.27;;;5.18;;
23539;SDS011;11947;50.810;4.394;2023-06-19T14:51:57;8.27;;;5.57;;
23539;SDS011;11947;50.810;4.394;2023-06-19T14:54:26;9.90;;;5.80;;
23539;SDS011;11947;50.810;4.394;2023-06-19T14:56:56;8.95;;;5.53;;
23539;SDS011;11947;50.810;4.394;2023-06-19T14:59:42;9.20;;;5.82;;
23539;SDS011;11947;50.810;4.394;2023-06-19T15:02:07;9.00;;;6.07;;
23539;SDS011;11947;50.810;4.394;2023-06-19T15:04:34;8.73;;;5.60;;